Latest Weather Observations for Noonamah

IDD60901

Issued at 11:05 pm CST Sunday 20 April 2014 (issued every 10 minutes, with the page automatically refreshed every 10 minutes)

About weather observations | Map of Darwin area stations | Latest observations for Darwin area | Other Formats
Station Details ID: 014314 Name: NOONAMAH AIRSTRIP Lat: -12.61 Lon: 131.05 Height: 17.5 m
Data from the previous 72 hours. | See also: Recent months for locations in Northern Territory
Date/Time
CST
Tmp

°C
App
Tmp
°C
Dew
Point
°C
Rel
Hum
%
Delta-T

°C
Wind Press
QNH
hPa
Press
MSL
hPa
Rain
since
9 am
mm
Dir
 
Spd
km/h
Gust
km/h
Spd
kts
Gust
kts
20/11:00pm 26.6 31.3 24.3 87 1.6 E 7 11 4 6 1010.2 - 0.0
20/10:30pm 26.4 32.4 24.2 88 1.5 CALM 0 0 0 0 1009.5 1009.3 0.0
20/10:00pm 26.5 32.3 24.0 86 1.7 CALM 0 0 0 0 1009.8 - 0.0
20/09:30pm 26.7 32.3 24.2 86 1.7 NNW 2 2 1 1 1009.7 1009.5 0.0
20/09:00pm 27.4 33.0 24.3 83 2.1 NNW 2 4 1 2 1009.5 1009.3 0.0
20/08:30pm 28.1 33.7 24.3 80 2.6 NNE 2 4 1 2 1009.2 1009.0 0.0
20/08:00pm 28.4 34.0 24.2 78 2.9 SSW 2 4 1 2 1009.0 - 0.0
20/07:30pm 28.8 34.7 24.1 76 3.3 CALM 0 0 0 0 1008.7 1008.5 0.0
20/07:00pm 29.2 34.3 22.7 68 4.4 CALM 0 0 0 0 1008.5 - 0.0
20/06:30pm 30.2 34.4 21.8 60 5.7 SE 2 4 1 2 1008.2 1008.0 0.0
20/06:00pm 30.8 33.9 21.0 56 6.6 ENE 6 9 3 5 1008.0 1007.8 0.0
20/05:30pm 32.1 34.1 20.0 48 8.0 ESE 9 13 5 7 1007.5 1007.3 0.0
20/05:00pm 33.4 35.1 20.2 46 8.8 E 11 17 6 9 1007.1 - 0.0
20/04:30pm 33.4 34.2 19.1 42 9.4 ESE 13 19 7 10 1007.0 1006.8 0.0
20/04:00pm 33.5 34.7 19.9 44 9.0 E 13 20 7 11 1006.8 - 0.0
20/03:30pm 33.6 34.7 19.7 44 9.2 E 13 22 7 12 1006.8 1006.6 0.0
20/03:00pm 33.6 34.1 19.3 43 9.4 E 15 26 8 14 1007.0 1006.8 0.0
20/02:30pm 33.2 33.4 19.3 44 9.2 E 17 26 9 14 1007.4 1007.2 0.0
20/02:00pm 33.1 33.4 18.8 42 9.3 E 15 26 8 14 1007.8 - 0.0
20/01:30pm 32.8 33.1 19.7 46 8.7 ESE 17 24 9 13 1008.3 1008.1 0.0
20/01:00pm 32.5 32.7 19.4 46 8.6 ESE 17 26 9 14 1008.6 - 0.0
20/12:30pm 32.2 32.5 19.5 47 8.4 E 17 28 9 15 1008.9 1008.7 0.0
20/12:00pm 31.7 32.0 19.7 49 7.9 ESE 17 26 9 14 1009.4 1009.2 0.0
20/11:30am 31.5 32.3 19.8 49 7.7 E 15 26 8 14 1009.9 1009.7 0.0
20/11:00am 31.0 31.8 20.6 54 6.9 E 17 30 9 16 1010.4 - 0.0
20/10:30am 30.4 31.7 20.9 57 6.3 ESE 15 22 8 12 1010.7 1010.5 0.0
20/10:00am 29.6 31.1 21.3 61 5.6 ESE 15 20 8 11 1010.7 - 0.0
20/09:30am 28.3 30.1 21.1 65 4.8 ESE 13 20 7 11 1010.6 1010.4 0.0
20/09:00am 27.7 29.7 21.5 69 4.1 SE 13 19 7 10 1010.4 1010.2 1.0
20/08:30am 26.3 28.3 21.5 75 3.2 SE 13 19 7 10 1010.3 1010.1 1.0
20/08:00am 25.1 28.9 22.4 85 1.8 SSE 6 11 3 6 1010.1 - 1.0
20/07:30am 23.4 27.3 21.8 91 1.1 SE 4 6 2 3 1009.9 1009.7 1.0
20/07:00am 22.6 26.6 21.4 93 0.8 ESE 2 4 1 2 1009.5 - 1.0
20/06:30am 22.6 26.3 21.4 93 0.8 E 4 6 2 3 1009.2 1009.0 1.0
20/06:00am 22.6 26.9 21.2 92 0.9 CALM 0 0 0 0 1008.8 1008.6 1.0
20/05:30am 22.8 26.8 21.4 92 0.9 ESE 2 2 1 1 1008.5 1008.3 1.0
20/05:00am 22.9 27.0 21.5 92 0.9 E 2 2 1 1 1008.5 - 1.0
20/04:30am 23.0 27.5 21.6 92 0.9 CALM 0 0 0 0 1008.5 1008.3 1.0
20/04:00am 23.1 27.5 21.4 90 1.1 CALM 0 0 0 0 1008.5 - 1.0
20/03:30am 23.3 27.7 21.4 89 1.3 CALM 0 2 0 1 1008.5 1008.3 1.0
20/03:00am 23.4 26.6 21.3 88 1.4 SE 6 7 3 4 1008.6 1008.4 1.0
20/02:30am 23.6 26.8 21.3 87 1.5 S 6 9 3 5 1008.9 1008.7 1.0
20/02:00am 24.0 26.9 21.1 84 1.9 SSE 7 13 4 7 1009.2 - 1.0
20/01:30am 24.2 27.8 21.3 84 1.9 SSE 4 6 2 3 1009.4 1009.2 1.0
20/01:00am 24.6 27.9 21.5 83 2.1 SE 6 11 3 6 1010.0 - 1.0
20/12:30am 24.7 27.9 21.6 83 2.1 SE 7 11 4 6 1010.3 1010.1 1.0
20/12:00am 24.9 28.3 21.6 82 2.2 ESE 6 9 3 5 1010.5 1010.3 1.0
 
Date/Time
CST
Tmp

°C
App
Tmp
°C
Dew
Point
°C
Rel
Hum
%
Delta-T

°C
Wind Press
QNH
hPa
Press
MSL
hPa
Rain
since
9 am
mm
Dir
 
Spd
km/h
Gust
km/h
Spd
kts
Gust
kts
19/11:30pm 25.3 28.5 21.6 80 2.5 E 7 13 4 7 1010.8 1010.6 1.0
19/11:00pm 25.5 29.1 22.0 81 2.3 E 6 11 3 6 1011.0 - 1.0
19/10:30pm 25.4 28.6 21.3 78 2.7 E 6 7 3 4 1011.2 1011.0 1.0
19/10:00pm 25.9 27.5 20.7 73 3.4 E 13 22 7 12 1011.1 - 1.0
19/09:30pm 26.2 27.4 21.4 75 3.2 E 17 28 9 15 1010.8 1010.6 1.0
19/09:00pm 26.1 29.0 22.4 80 2.5 ENE 11 17 6 9 1010.6 1010.4 1.0
19/08:30pm 25.7 29.0 22.6 83 2.1 NE 9 13 5 7 1010.2 1010.0 1.0
19/08:00pm 25.9 28.7 23.0 84 2.0 ENE 13 22 7 12 1009.9 - 1.0
19/07:30pm 26.1 29.6 22.8 82 2.2 ENE 9 15 5 8 1009.5 1009.3 1.0
19/07:00pm 26.3 30.8 23.0 82 2.2 NE 4 6 2 3 1008.4 - 1.0
19/06:30pm 26.7 30.6 23.0 80 2.5 N 7 11 4 6 1008.4 1008.2 1.0
19/06:00pm 26.6 30.3 23.3 82 2.3 ENE 9 17 5 9 1008.3 1008.1 1.0
19/05:30pm 28.3 29.9 22.1 69 4.2 ESE 17 32 9 17 1007.6 1007.4 0.6
19/05:14pm 28.4 28.5 21.2 65 4.8 ESE 22 35 12 19 1007.4 - 0.6
19/05:00pm 33.5 35.8 20.6 46 8.6 E 9 17 5 9 1007.1 - 0.2
19/04:30pm 33.6 35.6 20.7 46 8.7 E 11 17 6 9 1006.7 1006.5 0.2
19/04:00pm 33.8 35.7 20.6 46 8.8 ENE 11 17 6 9 1006.7 - 0.2
19/03:30pm 34.1 35.6 20.5 45 9.1 ENE 13 22 7 12 1006.6 1006.4 0.2
19/03:00pm 33.8 35.5 20.9 46 8.7 ESE 13 24 7 13 1006.7 1006.5 0.2
19/02:30pm 32.7 34.9 21.2 50 7.8 E 11 26 6 14 1007.2 1007.0 0.2
19/02:00pm 33.6 35.7 21.7 49 8.1 E 13 24 7 13 1007.5 - 0.2
19/01:30pm 33.4 35.2 21.9 51 7.8 E 15 30 8 16 1008.0 1007.8 0.2
19/01:00pm 32.5 33.9 21.0 50 7.7 E 15 24 8 13 1008.5 - 0.2
19/12:30pm 32.1 34.3 21.9 54 6.9 E 13 20 7 11 1009.0 1008.8 0.2
19/12:00pm 31.3 33.5 21.8 57 6.4 ENE 13 24 7 13 1009.8 1009.6 0.2
19/11:30am 30.9 33.6 22.8 62 5.6 E 13 19 7 10 1010.4 1010.2 0.2
19/11:00am 30.3 33.5 23.0 65 5.0 E 11 17 6 9 1011.0 - 0.2
19/10:30am 29.7 32.2 22.4 65 5.0 ESE 13 20 7 11 1011.2 1011.0 0.2
19/10:00am 28.7 31.3 22.7 70 4.1 ESE 13 19 7 10 1011.2 - 0.2
19/09:30am 28.1 31.6 22.8 73 3.6 ESE 9 15 5 8 1011.2 1011.0 0.2
19/09:00am 27.2 30.7 22.8 77 3.0 ESE 9 13 5 7 1011.1 1010.9 13.2
19/08:30am 25.9 29.8 23.0 84 2.0 ESE 7 13 4 7 1011.0 1010.8 13.2
19/08:00am 24.8 28.7 22.9 89 1.3 ESE 7 11 4 6 1011.0 - 13.2
19/07:30am 23.8 28.1 22.6 93 0.8 SE 4 7 2 4 1010.8 1010.6 13.2
19/07:00am 23.2 28.0 22.2 94 0.7 CALM 0 0 0 0 1010.7 - 13.0
19/06:30am 23.1 27.8 21.9 93 0.8 CALM 0 0 0 0 1010.5 1010.3 13.0
19/06:00am 23.5 28.4 22.3 93 0.8 CALM 0 0 0 0 1010.3 1010.1 13.0
19/05:30am 23.5 28.1 22.5 94 0.7 SE 2 4 1 2 1010.1 1009.9 13.0
19/05:00am 23.6 27.8 22.4 93 0.8 SSE 4 6 2 3 1009.9 - 13.0
19/04:30am 23.8 28.1 22.6 93 0.8 SE 4 6 2 3 1009.8 1009.6 13.0
19/04:00am 23.9 28.6 22.7 93 0.8 SE 2 2 1 1 1009.8 - 13.0
19/03:30am 23.7 28.7 22.5 93 0.8 CALM 0 0 0 0 1009.7 1009.5 13.0
19/03:00am 24.0 29.2 22.8 93 0.8 CALM 0 0 0 0 1010.0 1009.8 13.0
19/02:30am 24.0 28.8 22.8 93 0.8 E 2 4 1 2 1010.1 1009.9 13.0
19/02:00am 24.1 28.6 22.9 93 0.8 ESE 4 6 2 3 1010.3 - 13.0
19/01:30am 24.2 28.7 23.0 93 0.8 SE 4 6 2 3 1010.6 1010.4 13.0
19/01:00am 24.2 28.7 23.0 93 0.8 ESE 4 6 2 3 1010.9 - 13.0
19/12:30am 24.3 28.9 23.1 93 0.8 SE 4 7 2 4 1011.1 1010.9 13.0
19/12:00am 24.2 28.3 23.0 93 0.8 SE 6 7 3 4 1011.2 1011.0 13.0
 
Date/Time
CST
Tmp

°C
App
Tmp
°C
Dew
Point
°C
Rel
Hum
%
Delta-T

°C
Wind Press
QNH
hPa
Press
MSL
hPa
Rain
since
9 am
mm
Dir
 
Spd
km/h
Gust
km/h
Spd
kts
Gust
kts
18/11:30pm 24.2 28.3 23.0 93 0.8 SE 6 7 3 4 1011.5 1011.3 13.0
18/11:00pm 24.2 28.0 22.8 92 0.9 ESE 7 11 4 6 1011.6 - 13.0
18/10:30pm 24.1 27.6 22.9 93 0.8 ESE 9 17 5 9 1011.4 1011.2 13.0
18/10:00pm 24.1 28.2 22.9 93 0.8 SSE 6 7 3 4 1011.7 - 13.0
18/09:30pm 24.1 28.2 22.9 93 0.8 SE 6 11 3 6 1011.7 1011.5 12.8
18/09:00pm 24.1 27.9 22.7 92 0.9 E 7 13 4 7 1011.9 1011.7 12.2
18/08:30pm 24.2 27.7 22.8 92 0.9 SE 9 17 5 9 1012.0 1011.8 12.2
18/08:00pm 25.9 28.8 23.9 89 1.4 E 15 24 8 13 1011.9 - 7.6
18/07:30pm 25.6 30.2 23.8 90 1.2 SE 6 7 3 4 1010.4 1010.2 7.4
18/07:00pm 25.7 31.4 23.7 89 1.4 CALM 0 2 0 1 1010.1 - 7.4
18/06:30pm 25.5 30.2 23.4 88 1.4 NE 4 6 2 3 1009.7 1009.5 7.4
18/06:00pm 25.5 30.4 23.6 89 1.3 NNE 4 7 2 4 1009.2 1009.0 7.4
18/05:30pm 25.7 30.3 23.2 86 1.7 NNE 4 6 2 3 1008.9 1008.7 7.4
18/05:00pm 25.9 31.1 23.6 87 1.6 E 2 4 1 2 1008.9 - 7.4
18/04:30pm 26.1 29.5 24.1 89 1.4 NE 13 22 7 12 1009.0 1008.8 7.4
18/04:00pm 25.8 29.6 24.0 90 1.2 N 11 19 6 10 1008.1 - 7.4
18/03:30pm 29.5 32.7 23.0 68 4.5 NNE 11 32 6 17 1008.3 1008.1 0.2
18/03:00pm 30.4 32.8 22.3 62 5.5 NE 13 22 7 12 1008.0 1007.8 0.0
18/02:30pm 31.5 34.0 22.5 59 6.2 ESE 13 20 7 11 1008.1 1007.9 0.0
18/02:00pm 33.4 35.8 22.2 52 7.7 E 13 19 7 10 1008.5 - 0.0
18/01:30pm 33.4 36.1 22.8 53 7.3 E 13 20 7 11 1008.8 1008.6 0.0
18/01:00pm 33.2 36.1 23.2 55 6.9 ENE 13 20 7 11 1009.1 - 0.0
18/12:30pm 31.8 35.4 23.1 60 6.0 ENE 9 15 5 8 1009.6 1009.4 0.0
18/12:00pm 31.3 34.9 23.1 61 5.6 E 9 17 5 9 1010.3 1010.1 0.0
18/11:30am 29.9 32.9 22.6 65 5.0 ENE 11 17 6 9 1010.8 1010.6 0.0
18/11:00am 30.0 32.6 22.7 65 5.0 ENE 13 19 7 10 1011.1 - 0.0
18/10:30am 30.1 33.9 22.8 65 5.0 E 7 11 4 6 1011.2 1011.0 0.0
18/10:00am 29.5 32.9 22.7 67 4.6 E 9 13 5 7 1011.2 - 0.0
18/09:30am 29.0 32.8 23.4 72 3.9 E 9 15 5 8 1011.2 1011.0 0.0
18/09:00am 28.3 32.6 23.7 76 3.2 ESE 7 11 4 6 1011.1 1010.9 9.6
18/08:30am 27.1 31.9 24.2 84 2.0 ESE 6 7 3 4 1011.2 1011.0 9.6
18/08:00am 25.8 31.3 24.0 90 1.2 ESE 2 4 1 2 1011.2 - 9.6
18/07:30am 25.1 30.8 23.7 92 1.0 CALM 0 0 0 0 1010.9 1010.7 9.6
18/07:00am 24.9 30.5 23.5 92 1.0 CALM 0 0 0 0 1010.7 - 9.6
18/06:30am 24.8 29.2 23.4 92 1.0 SSE 6 6 3 3 1010.4 1010.2 9.6
18/06:00am 24.6 29.6 23.2 92 0.9 NNW 2 4 1 2 1010.1 1009.9 9.6
18/05:30am 24.7 30.1 23.3 92 1.0 CALM 0 0 0 0 1009.5 1009.3 9.6
18/05:00am 25.0 30.4 23.2 90 1.2 CALM 0 2 0 1 1009.5 - 9.6
18/04:30am 25.1 30.2 23.3 90 1.2 ENE 2 6 1 3 1009.8 1009.6 9.6
18/04:00am 25.1 29.8 23.3 90 1.2 E 4 7 2 4 1009.3 - 9.6
18/03:30am 25.5 30.2 23.9 91 1.1 ENE 6 9 3 5 1009.5 1009.3 9.6
18/03:00am 25.7 31.5 23.9 90 1.2 CALM 0 0 0 0 1009.5 1009.3 9.4
18/02:30am 25.5 30.4 23.7 90 1.2 SE 4 6 2 3 1009.7 1009.5 9.4
18/02:00am 25.6 31.3 23.8 90 1.2 CALM 0 0 0 0 1010.0 - 9.4
18/01:30am 25.8 31.2 23.8 89 1.4 ENE 2 4 1 2 1010.3 1010.1 9.4
18/01:00am 26.0 30.5 23.7 87 1.6 SE 6 9 3 5 1010.8 - 9.4
18/12:30am 25.9 30.8 24.3 91 1.1 SSE 6 6 3 3 1010.8 1010.6 9.4
18/12:00am 25.8 31.6 24.0 90 1.2 CALM 0 0 0 0 1010.8 1010.6 9.2
 
Date/Time
CST
Tmp

°C
App
Tmp
°C
Dew
Point
°C
Rel
Hum
%
Delta-T

°C
Wind Press
QNH
hPa
Press
MSL
hPa
Rain
since
9 am
mm
Dir
 
Spd
km/h
Gust
km/h
Spd
kts
Gust
kts
17/11:30pm 25.7 30.7 23.9 90 1.2 SSW 4 7 2 4 1010.7 1010.5 9.2

Latest Capital City Observations: Canberra | Sydney | Melbourne | Brisbane | Adelaide | Perth | Hobart | Darwin

Other Formats:

Comma delimited format used in spreadsheet applications
http://www.bom.gov.au/fwo/IDD60901/IDD60901.94105.axf

JavaScript Object Notation format (JSON) in row-major order
http://www.bom.gov.au/fwo/IDD60901/IDD60901.94105.json